sensor_id;sensor_type;location;lat;lon;timestamp;P1;durP1;ratioP1;P2;durP2;ratioP2
4903;SDS011;2467;48.142;11.616;2022-08-19T00:00:20;5.47;;;5.07;;
4903;SDS011;2467;48.142;11.616;2022-08-19T00:00:53;6.43;;;5.82;;
4903;SDS011;2467;48.142;11.616;2022-08-19T00:01:25;6.10;;;5.70;;
4903;SDS011;2467;48.142;11.616;2022-08-19T00:02:00;5.43;;;5.05;;
4903;SDS011;2467;48.142;11.616;2022-08-19T00:02:33;5.53;;;5.13;;
4903;SDS011;2467;48.142;11.616;2022-08-19T00:03:06;6.93;;;6.32;;
4903;SDS011;2467;48.142;11.616;2022-08-19T00:03:38;5.80;;;5.22;;
4903;SDS011;2467;48.142;11.616;2022-08-19T00:04:11;7.78;;;5.75;;
4903;SDS011;2467;48.142;11.616;2022-08-19T00:04:45;5.57;;;5.18;;
4903;SDS011;2467;48.142;11.616;2022-08-19T00:05:20;5.53;;;5.13;;
4903;SDS011;2467;48.142;11.616;2022-08-19T00:05:53;6.25;;;5.65;;
4903;SDS011;2467;48.142;11.616;2022-08-19T00:06:26;5.72;;;5.22;;
4903;SDS011;2467;48.142;11.616;2022-08-19T00:06:59;5.60;;;5.20;;
4903;SDS011;2467;48.142;11.616;2022-08-19T00:07:31;4.90;;;4.60;;
4903;SDS011;2467;48.142;11.616;2022-08-19T00:08:04;5.43;;;5.03;;
4903;SDS011;2467;48.142;11.616;2022-08-19T00:08:36;5.80;;;5.40;;
4903;SDS011;2467;48.142;11.616;2022-08-19T00:09:13;5.75;;;5.25;;
4903;SDS011;2467;48.142;11.616;2022-08-19T00:09:48;7.45;;;6.00;;
4903;SDS011;2467;48.142;11.616;2022-08-19T00:10:20;6.85;;;6.25;;
4903;SDS011;2467;48.142;11.616;2022-08-19T00:10:52;5.80;;;5.40;;
4903;SDS011;2467;48.142;11.616;2022-08-19T00:11:25;5.45;;;5.05;;
4903;SDS011;2467;48.142;11.616;2022-08-19T00:11:58;6.43;;;5.85;;
4903;SDS011;2467;48.142;11.616;2022-08-19T00:12:30;5.55;;;5.15;;
4903;SDS011;2467;48.142;11.616;2022-08-19T00:13:09;6.25;;;5.75;;
4903;SDS011;2467;48.142;11.616;2022-08-19T00:13:41;6.38;;;5.88;;
4903;SDS011;2467;48.142;11.616;2022-08-19T00:14:14;5.45;;;5.05;;
4903;SDS011;2467;48.142;11.616;2022-08-19T00:14:49;5.88;;;5.45;;
4903;SDS011;2467;48.142;11.616;2022-08-19T00:15:21;5.55;;;5.15;;
4903;SDS011;2467;48.142;11.616;2022-08-19T00:15:53;5.63;;;5.13;;
4903;SDS011;2467;48.142;11.616;2022-08-19T00:16:25;6.85;;;6.32;;
4903;SDS011;2467;48.142;11.616;2022-08-19T00:16:58;5.82;;;5.43;;
4903;SDS011;2467;48.142;11.616;2022-08-19T00:17:31;6.53;;;6.03;;
4903;SDS011;2467;48.142;11.616;2022-08-19T00:18:03;7.30;;;6.72;;
4903;SDS011;2467;48.142;11.616;2022-08-19T00:18:36;6.85;;;6.35;;
4903;SDS011;2467;48.142;11.616;2022-08-19T00:19:08;6.20;;;5.80;;
4903;SDS011;2467;48.142;11.616;2022-08-19T00:19:40;5.97;;;5.57;;
4903;SDS011;2467;48.142;11.616;2022-08-19T00:20:14;6.40;;;5.90;;
4903;SDS011;2467;48.142;11.616;2022-08-19T00:20:49;6.10;;;5.60;;
4903;SDS011;2467;48.142;11.616;2022-08-19T00:21:21;5.68;;;5.28;;
4903;SDS011;2467;48.142;11.616;2022-08-19T00:21:54;6.00;;;5.60;;
4903;SDS011;2467;48.142;11.616;2022-08-19T00:22:27;6.65;;;6.20;;
4903;SDS011;2467;48.142;11.616;2022-08-19T00:22:59;7.07;;;6.47;;
4903;SDS011;2467;48.142;11.616;2022-08-19T00:23:32;6.82;;;6.30;;
4903;SDS011;2467;48.142;11.616;2022-08-19T00:24:06;6.65;;;6.15;;
4903;SDS011;2467;48.142;11.616;2022-08-19T00:24:39;8.18;;;6.88;;
4903;SDS011;2467;48.142;11.616;2022-08-19T00:25:21;6.20;;;5.80;;
4903;SDS011;2467;48.142;11.616;2022-08-19T00:26:00;6.75;;;6.20;;
4903;SDS011;2467;48.142;11.616;2022-08-19T00:26:33;7.65;;;6.70;;
4903;SDS011;2467;48.142;11.616;2022-08-19T00:27:05;6.72;;;6.22;;
4903;SDS011;2467;48.142;11.616;2022-08-19T00:27:56;6.88;;;6.38;;
4903;SDS011;2467;48.142;11.616;2022-08-19T00:28:30;6.43;;;5.93;;
4903;SDS011;2467;48.142;11.616;2022-08-19T00:29:07;6.13;;;5.72;;
4903;SDS011;2467;48.142;11.616;2022-08-19T00:29:41;6.85;;;6.35;;
4903;SDS011;2467;48.142;11.616;2022-08-19T00:30:16;6.47;;;5.95;;
4903;SDS011;2467;48.142;11.616;2022-08-19T00:30:48;7.13;;;6.63;;
4903;SDS011;2467;48.142;11.616;2022-08-19T00:31:20;7.15;;;6.55;;
4903;SDS011;2467;48.142;11.616;2022-08-19T00:31:53;7.35;;;6.75;;
4903;SDS011;2467;48.142;11.616;2022-08-19T00:32:25;6.47;;;5.97;;
4903;SDS011;2467;48.142;11.616;2022-08-19T00:32:58;6.53;;;6.03;;
4903;SDS011;2467;48.142;11.616;2022-08-19T00:33:31;6.70;;;6.20;;
4903;SDS011;2467;48.142;11.616;2022-08-19T00:34:04;6.95;;;6.45;;
4903;SDS011;2467;48.142;11.616;2022-08-19T00:34:36;6.55;;;6.05;;
4903;SDS011;2467;48.142;11.616;2022-08-19T00:35:09;6.72;;;6.22;;
4903;SDS011;2467;48.142;11.616;2022-08-19T00:35:41;8.07;;;7.43;;
4903;SDS011;2467;48.142;11.616;2022-08-19T00:36:13;7.32;;;6.72;;
4903;SDS011;2467;48.142;11.616;2022-08-19T00:36:46;7.43;;;6.85;;
4903;SDS011;2467;48.142;11.616;2022-08-19T00:37:19;7.00;;;6.50;;
4903;SDS011;2467;48.142;11.616;2022-08-19T00:37:54;7.90;;;7.30;;
4903;SDS011;2467;48.142;11.616;2022-08-19T00:38:27;6.82;;;6.32;;
4903;SDS011;2467;48.142;11.616;2022-08-19T00:39:08;7.03;;;6.43;;
4903;SDS011;2467;48.142;11.616;2022-08-19T00:39:40;7.28;;;6.72;;
4903;SDS011;2467;48.142;11.616;2022-08-19T00:40:13;7.05;;;6.45;;
4903;SDS011;2467;48.142;11.616;2022-08-19T00:40:46;7.90;;;7.30;;
4903;SDS011;2467;48.142;11.616;2022-08-19T00:41:19;8.98;;;8.27;;
4903;SDS011;2467;48.142;11.616;2022-08-19T00:41:54;7.30;;;6.78;;
4903;SDS011;2467;48.142;11.616;2022-08-19T00:42:26;8.35;;;7.65;;
4903;SDS011;2467;48.142;11.616;2022-08-19T00:42:59;8.70;;;8.00;;
4903;SDS011;2467;48.142;11.616;2022-08-19T00:43:32;8.60;;;7.90;;
4903;SDS011;2467;48.142;11.616;2022-08-19T00:44:05;8.15;;;7.45;;
4903;SDS011;2467;48.142;11.616;2022-08-19T00:44:38;7.68;;;7.00;;
4903;SDS011;2467;48.142;11.616;2022-08-19T00:45:12;7.72;;;7.13;;
4903;SDS011;2467;48.142;11.616;2022-08-19T00:45:49;8.30;;;7.60;;
4903;SDS011;2467;48.142;11.616;2022-08-19T00:46:22;7.35;;;6.75;;
4903;SDS011;2467;48.142;11.616;2022-08-19T00:46:55;7.75;;;7.05;;
4903;SDS011;2467;48.142;11.616;2022-08-19T00:47:29;9.15;;;8.35;;
4903;SDS011;2467;48.142;11.616;2022-08-19T00:48:02;9.15;;;8.35;;
4903;SDS011;2467;48.142;11.616;2022-08-19T00:48:44;8.73;;;8.02;;
4903;SDS011;2467;48.142;11.616;2022-08-19T00:49:19;9.45;;;8.55;;
4903;SDS011;2467;48.142;11.616;2022-08-19T00:50:04;9.00;;;8.27;;
4903;SDS011;2467;48.142;11.616;2022-08-19T00:50:39;9.05;;;8.30;;
4903;SDS011;2467;48.142;11.616;2022-08-19T00:51:22;8.95;;;8.23;;
4903;SDS011;2467;48.142;11.616;2022-08-19T00:52:01;9.20;;;8.50;;
4903;SDS011;2467;48.142;11.616;2022-08-19T00:52:38;7.28;;;6.78;;
4903;SDS011;2467;48.142;11.616;2022-08-19T00:53:16;8.75;;;8.05;;
4903;SDS011;2467;48.142;11.616;2022-08-19T00:53:53;8.65;;;7.88;;
4903;SDS011;2467;48.142;11.616;2022-08-19T00:54:27;7.75;;;7.15;;
4903;SDS011;2467;48.142;11.616;2022-08-19T00:55:02;8.90;;;8.20;;
4903;SDS011;2467;48.142;11.616;2022-08-19T00:55:37;8.60;;;7.90;;
4903;SDS011;2467;48.142;11.616;2022-08-19T00:56:11;8.93;;;8.20;;
4903;SDS011;2467;48.142;11.616;2022-08-19T00:56:43;8.57;;;7.88;;
4903;SDS011;2467;48.142;11.616;2022-08-19T00:57:18;8.88;;;8.27;;
4903;SDS011;2467;48.142;11.616;2022-08-19T00:57:55;8.70;;;8.00;;
4903;SDS011;2467;48.142;11.616;2022-08-19T00:58:31;8.93;;;8.20;;
4903;SDS011;2467;48.142;11.616;2022-08-19T00:59:05;8.80;;;8.10;;
4903;SDS011;2467;48.142;11.616;2022-08-19T00:59:40;7.95;;;7.35;;
4903;SDS011;2467;48.142;11.616;2022-08-19T01:00:33;8.55;;;7.85;;
4903;SDS011;2467;48.142;11.616;2022-08-19T01:01:09;8.70;;;8.00;;
4903;SDS011;2467;48.142;11.616;2022-08-19T01:01:42;10.40;;;9.60;;
4903;SDS011;2467;48.142;11.616;2022-08-19T01:02:15;8.32;;;7.72;;
4903;SDS011;2467;48.142;11.616;2022-08-19T01:02:49;8.40;;;7.70;;
4903;SDS011;2467;48.142;11.616;2022-08-19T01:03:21;9.20;;;8.50;;
4903;SDS011;2467;48.142;11.616;2022-08-19T01:03:54;8.95;;;8.25;;
4903;SDS011;2467;48.142;11.616;2022-08-19T01:04:29;9.38;;;8.57;;
4903;SDS011;2467;48.142;11.616;2022-08-19T01:05:03;8.52;;;7.85;;
4903;SDS011;2467;48.142;11.616;2022-08-19T01:05:39;9.13;;;8.40;;
4903;SDS011;2467;48.142;11.616;2022-08-19T01:06:14;10.52;;;9.63;;
4903;SDS011;2467;48.142;11.616;2022-08-19T01:06:50;9.35;;;8.45;;
4903;SDS011;2467;48.142;11.616;2022-08-19T01:07:22;9.30;;;8.50;;
4903;SDS011;2467;48.142;11.616;2022-08-19T01:07:55;10.82;;;9.93;;
4903;SDS011;2467;48.142;11.616;2022-08-19T01:08:29;9.55;;;8.85;;
4903;SDS011;2467;48.142;11.616;2022-08-19T01:09:01;9.50;;;8.73;;
4903;SDS011;2467;48.142;11.616;2022-08-19T01:09:35;9.95;;;9.15;;
4903;SDS011;2467;48.142;11.616;2022-08-19T01:10:08;9.50;;;8.63;;
4903;SDS011;2467;48.142;11.616;2022-08-19T01:10:43;10.73;;;9.82;;
4903;SDS011;2467;48.142;11.616;2022-08-19T01:11:18;8.85;;;8.05;;
4903;SDS011;2467;48.142;11.616;2022-08-19T01:11:50;9.60;;;8.80;;
4903;SDS011;2467;48.142;11.616;2022-08-19T01:12:23;9.93;;;9.02;;
4903;SDS011;2467;48.142;11.616;2022-08-19T01:12:57;8.88;;;7.97;;
4903;SDS011;2467;48.142;11.616;2022-08-19T01:13:32;8.95;;;8.25;;
4903;SDS011;2467;48.142;11.616;2022-08-19T01:14:19;10.00;;;9.20;;
4903;SDS011;2467;48.142;11.616;2022-08-19T01:14:52;9.75;;;8.95;;
4903;SDS011;2467;48.142;11.616;2022-08-19T01:15:33;10.70;;;9.80;;
4903;SDS011;2467;48.142;11.616;2022-08-19T01:16:12;11.13;;;10.13;;
4903;SDS011;2467;48.142;11.616;2022-08-19T01:16:46;10.27;;;9.48;;
4903;SDS011;2467;48.142;11.616;2022-08-19T01:17:18;10.95;;;10.02;;
4903;SDS011;2467;48.142;11.616;2022-08-19T01:17:51;9.30;;;8.50;;
4903;SDS011;2467;48.142;11.616;2022-08-19T01:18:26;10.48;;;9.68;;
4903;SDS011;2467;48.142;11.616;2022-08-19T01:18:58;10.68;;;9.60;;
4903;SDS011;2467;48.142;11.616;2022-08-19T01:19:32;10.85;;;9.95;;
4903;SDS011;2467;48.142;11.616;2022-08-19T01:20:16;10.98;;;9.98;;
4903;SDS011;2467;48.142;11.616;2022-08-19T01:20:50;11.60;;;10.65;;
4903;SDS011;2467;48.142;11.616;2022-08-19T01:21:24;10.52;;;9.55;;
4903;SDS011;2467;48.142;11.616;2022-08-19T01:22:02;10.18;;;9.35;;
4903;SDS011;2467;48.142;11.616;2022-08-19T01:22:47;10.93;;;10.13;;
4903;SDS011;2467;48.142;11.616;2022-08-19T01:23:22;11.38;;;10.48;;
4903;SDS011;2467;48.142;11.616;2022-08-19T01:24:13;10.50;;;9.68;;
4903;SDS011;2467;48.142;11.616;2022-08-19T01:24:46;11.52;;;10.52;;
4903;SDS011;2467;48.142;11.616;2022-08-19T01:25:21;11.13;;;9.70;;
4903;SDS011;2467;48.142;11.616;2022-08-19T01:25:59;10.70;;;9.80;;
4903;SDS011;2467;48.142;11.616;2022-08-19T01:26:37;11.70;;;10.70;;
4903;SDS011;2467;48.142;11.616;2022-08-19T01:27:12;10.95;;;9.85;;
4903;SDS011;2467;48.142;11.616;2022-08-19T01:27:45;11.35;;;10.13;;
4903;SDS011;2467;48.142;11.616;2022-08-19T01:28:25;10.55;;;9.60;;
4903;SDS011;2467;48.142;11.616;2022-08-19T01:29:10;11.90;;;10.90;;
4903;SDS011;2467;48.142;11.616;2022-08-19T01:29:44;11.43;;;10.43;;
4903;SDS011;2467;48.142;11.616;2022-08-19T01:30:20;11.52;;;10.63;;
4903;SDS011;2467;48.142;11.616;2022-08-19T01:30:55;11.10;;;10.05;;
4903;SDS011;2467;48.142;11.616;2022-08-19T01:31:28;11.25;;;10.32;;
4903;SDS011;2467;48.142;11.616;2022-08-19T01:32:03;12.07;;;10.88;;
4903;SDS011;2467;48.142;11.616;2022-08-19T01:32:35;10.30;;;9.50;;
4903;SDS011;2467;48.142;11.616;2022-08-19T01:33:08;11.57;;;10.57;;
4903;SDS011;2467;48.142;11.616;2022-08-19T01:33:40;12.57;;;11.38;;
4903;SDS011;2467;48.142;11.616;2022-08-19T01:34:12;11.40;;;10.38;;
4903;SDS011;2467;48.142;11.616;2022-08-19T01:34:45;10.50;;;9.70;;
4903;SDS011;2467;48.142;11.616;2022-08-19T01:35:18;11.13;;;10.23;;
4903;SDS011;2467;48.142;11.616;2022-08-19T01:35:50;11.30;;;10.40;;
4903;SDS011;2467;48.142;11.616;2022-08-19T01:36:24;12.85;;;11.75;;
4903;SDS011;2467;48.142;11.616;2022-08-19T01:36:59;12.63;;;11.63;;
4903;SDS011;2467;48.142;11.616;2022-08-19T01:37:41;12.45;;;11.43;;
4903;SDS011;2467;48.142;11.616;2022-08-19T01:38:20;12.15;;;11.25;;
4903;SDS011;2467;48.142;11.616;2022-08-19T01:38:54;12.65;;;11.55;;
4903;SDS011;2467;48.142;11.616;2022-08-19T01:39:29;11.65;;;10.75;;
4903;SDS011;2467;48.142;11.616;2022-08-19T01:40:01;12.43;;;11.45;;
4903;SDS011;2467;48.142;11.616;2022-08-19T01:40:39;11.90;;;10.85;;
4903;SDS011;2467;48.142;11.616;2022-08-19T01:41:13;12.50;;;11.40;;
4903;SDS011;2467;48.142;11.616;2022-08-19T01:41:45;11.75;;;10.75;;
4903;SDS011;2467;48.142;11.616;2022-08-19T01:42:17;12.02;;;11.00;;
4903;SDS011;2467;48.142;11.616;2022-08-19T01:43:00;13.55;;;12.45;;
4903;SDS011;2467;48.142;11.616;2022-08-19T01:43:34;12.77;;;11.68;;
4903;SDS011;2467;48.142;11.616;2022-08-19T01:44:08;12.15;;;11.05;;
4903;SDS011;2467;48.142;11.616;2022-08-19T01:44:49;12.43;;;11.30;;
4903;SDS011;2467;48.142;11.616;2022-08-19T01:45:21;9.82;;;9.02;;
4903;SDS011;2467;48.142;11.616;2022-08-19T01:45:56;11.00;;;10.05;;
4903;SDS011;2467;48.142;11.616;2022-08-19T01:46:28;10.45;;;9.55;;
4903;SDS011;2467;48.142;11.616;2022-08-19T01:47:01;11.27;;;10.32;;
4903;SDS011;2467;48.142;11.616;2022-08-19T01:47:34;11.55;;;10.65;;
4903;SDS011;2467;48.142;11.616;2022-08-19T01:48:08;10.80;;;9.90;;
4903;SDS011;2467;48.142;11.616;2022-08-19T01:48:41;11.18;;;10.27;;
4903;SDS011;2467;48.142;11.616;2022-08-19T01:49:15;11.07;;;10.18;;
4903;SDS011;2467;48.142;11.616;2022-08-19T01:49:48;10.73;;;9.93;;
4903;SDS011;2467;48.142;11.616;2022-08-19T01:50:20;11.98;;;10.88;;
4903;SDS011;2467;48.142;11.616;2022-08-19T01:50:52;11.27;;;10.40;;
4903;SDS011;2467;48.142;11.616;2022-08-19T01:51:25;11.45;;;10.52;;
4903;SDS011;2467;48.142;11.616;2022-08-19T01:51:58;11.70;;;10.70;;
4903;SDS011;2467;48.142;11.616;2022-08-19T01:52:31;11.05;;;10.15;;
4903;SDS011;2467;48.142;11.616;2022-08-19T01:53:05;12.32;;;11.32;;
4903;SDS011;2467;48.142;11.616;2022-08-19T01:53:41;11.95;;;10.85;;
4903;SDS011;2467;48.142;11.616;2022-08-19T01:54:14;11.65;;;10.57;;
4903;SDS011;2467;48.142;11.616;2022-08-19T01:54:57;12.10;;;11.00;;
4903;SDS011;2467;48.142;11.616;2022-08-19T01:55:29;10.73;;;9.85;;
4903;SDS011;2467;48.142;11.616;2022-08-19T01:56:01;10.80;;;9.80;;
4903;SDS011;2467;48.142;11.616;2022-08-19T01:56:35;11.05;;;10.05;;
4903;SDS011;2467;48.142;11.616;2022-08-19T01:57:08;11.27;;;10.27;;
4903;SDS011;2467;48.142;11.616;2022-08-19T01:57:47;11.05;;;10.02;;
4903;SDS011;2467;48.142;11.616;2022-08-19T01:58:24;10.75;;;9.85;;
4903;SDS011;2467;48.142;11.616;2022-08-19T01:59:01;10.13;;;9.18;;
4903;SDS011;2467;48.142;11.616;2022-08-19T01:59:35;11.10;;;10.20;;
4903;SDS011;2467;48.142;11.616;2022-08-19T02:00:10;10.13;;;9.30;;
4903;SDS011;2467;48.142;11.616;2022-08-19T02:00:43;10.75;;;9.88;;
4903;SDS011;2467;48.142;11.616;2022-08-19T02:01:16;11.07;;;10.15;;
4903;SDS011;2467;48.142;11.616;2022-08-19T02:01:49;11.13;;;10.23;;
4903;SDS011;2467;48.142;11.616;2022-08-19T02:02:22;11.75;;;10.68;;
4903;SDS011;2467;48.142;11.616;2022-08-19T02:02:54;10.38;;;9.55;;
4903;SDS011;2467;48.142;11.616;2022-08-19T02:03:26;10.07;;;9.27;;
4903;SDS011;2467;48.142;11.616;2022-08-19T02:04:00;11.25;;;10.25;;
4903;SDS011;2467;48.142;11.616;2022-08-19T02:04:32;10.35;;;9.52;;
4903;SDS011;2467;48.142;11.616;2022-08-19T02:05:06;10.13;;;9.32;;
4903;SDS011;2467;48.142;11.616;2022-08-19T02:05:41;9.55;;;8.85;;
4903;SDS011;2467;48.142;11.616;2022-08-19T02:06:15;9.65;;;8.85;;
4903;SDS011;2467;48.142;11.616;2022-08-19T02:06:48;10.90;;;10.00;;
4903;SDS011;2467;48.142;11.616;2022-08-19T02:07:20;9.13;;;8.38;;
4903;SDS011;2467;48.142;11.616;2022-08-19T02:07:52;10.05;;;9.25;;
4903;SDS011;2467;48.142;11.616;2022-08-19T02:08:24;11.50;;;10.48;;
4903;SDS011;2467;48.142;11.616;2022-08-19T02:08:59;9.20;;;8.40;;
4903;SDS011;2467;48.142;11.616;2022-08-19T02:09:32;9.90;;;9.10;;
4903;SDS011;2467;48.142;11.616;2022-08-19T02:10:04;9.68;;;8.70;;
4903;SDS011;2467;48.142;11.616;2022-08-19T02:10:43;9.00;;;8.18;;
4903;SDS011;2467;48.142;11.616;2022-08-19T02:11:19;8.43;;;7.72;;
4903;SDS011;2467;48.142;11.616;2022-08-19T02:11:52;9.65;;;8.75;;
4903;SDS011;2467;48.142;11.616;2022-08-19T02:12:25;9.90;;;9.10;;
4903;SDS011;2467;48.142;11.616;2022-08-19T02:12:57;9.98;;;9.18;;
4903;SDS011;2467;48.142;11.616;2022-08-19T02:13:30;11.25;;;9.52;;
4903;SDS011;2467;48.142;11.616;2022-08-19T02:14:05;9.57;;;8.68;;
4903;SDS011;2467;48.142;11.616;2022-08-19T02:14:38;10.32;;;9.52;;
4903;SDS011;2467;48.142;11.616;2022-08-19T02:15:11;10.10;;;9.30;;
4903;SDS011;2467;48.142;11.616;2022-08-19T02:15:43;10.25;;;9.45;;
4903;SDS011;2467;48.142;11.616;2022-08-19T02:16:16;10.98;;;10.07;;
4903;SDS011;2467;48.142;11.616;2022-08-19T02:16:49;8.88;;;8.18;;
4903;SDS011;2467;48.142;11.616;2022-08-19T02:17:21;10.77;;;9.88;;
4903;SDS011;2467;48.142;11.616;2022-08-19T02:17:53;10.65;;;9.85;;
4903;SDS011;2467;48.142;11.616;2022-08-19T02:18:25;9.45;;;8.65;;
4903;SDS011;2467;48.142;11.616;2022-08-19T02:18:58;9.77;;;8.88;;
4903;SDS011;2467;48.142;11.616;2022-08-19T02:19:32;10.13;;;9.32;;
4903;SDS011;2467;48.142;11.616;2022-08-19T02:20:04;9.82;;;8.98;;
4903;SDS011;2467;48.142;11.616;2022-08-19T02:20:38;9.93;;;9.13;;
4903;SDS011;2467;48.142;11.616;2022-08-19T02:21:11;10.15;;;9.25;;
4903;SDS011;2467;48.142;11.616;2022-08-19T02:21:44;9.90;;;9.07;;
4903;SDS011;2467;48.142;11.616;2022-08-19T02:22:16;9.88;;;9.10;;
4903;SDS011;2467;48.142;11.616;2022-08-19T02:22:48;9.63;;;8.82;;
4903;SDS011;2467;48.142;11.616;2022-08-19T02:23:20;10.20;;;9.30;;
4903;SDS011;2467;48.142;11.616;2022-08-19T02:23:52;10.68;;;9.80;;
4903;SDS011;2467;48.142;11.616;2022-08-19T02:24:27;10.20;;;9.30;;
4903;SDS011;2467;48.142;11.616;2022-08-19T02:24:59;10.00;;;9.15;;
4903;SDS011;2467;48.142;11.616;2022-08-19T02:25:31;10.20;;;9.35;;
4903;SDS011;2467;48.142;11.616;2022-08-19T02:26:04;9.80;;;9.05;;
4903;SDS011;2467;48.142;11.616;2022-08-19T02:26:37;9.90;;;9.10;;
4903;SDS011;2467;48.142;11.616;2022-08-19T02:27:09;9.57;;;8.77;;
4903;SDS011;2467;48.142;11.616;2022-08-19T02:27:42;10.50;;;9.70;;
4903;SDS011;2467;48.142;11.616;2022-08-19T02:28:14;9.38;;;8.48;;
4903;SDS011;2467;48.142;11.616;2022-08-19T02:28:49;9.93;;;9.13;;
4903;SDS011;2467;48.142;11.616;2022-08-19T02:29:22;9.82;;;9.05;;
4903;SDS011;2467;48.142;11.616;2022-08-19T02:29:54;8.52;;;7.85;;
4903;SDS011;2467;48.142;11.616;2022-08-19T02:30:26;10.05;;;9.23;;
4903;SDS011;2467;48.142;11.616;2022-08-19T02:30:59;9.07;;;8.38;;
4903;SDS011;2467;48.142;11.616;2022-08-19T02:31:31;9.30;;;8.60;;
4903;SDS011;2467;48.142;11.616;2022-08-19T02:32:04;9.60;;;8.80;;
4903;SDS011;2467;48.142;11.616;2022-08-19T02:32:37;9.30;;;8.60;;
4903;SDS011;2467;48.142;11.616;2022-08-19T02:33:15;9.48;;;8.05;;
4903;SDS011;2467;48.142;11.616;2022-08-19T02:33:47;9.27;;;8.48;;
4903;SDS011;2467;48.142;11.616;2022-08-19T02:34:21;9.20;;;8.50;;
4903;SDS011;2467;48.142;11.616;2022-08-19T02:34:53;8.25;;;7.65;;
4903;SDS011;2467;48.142;11.616;2022-08-19T02:35:25;9.20;;;8.48;;
4903;SDS011;2467;48.142;11.616;2022-08-19T02:35:58;9.18;;;8.50;;
4903;SDS011;2467;48.142;11.616;2022-08-19T02:36:30;10.40;;;8.40;;
4903;SDS011;2467;48.142;11.616;2022-08-19T02:37:02;12.60;;;8.93;;
4903;SDS011;2467;48.142;11.616;2022-08-19T02:37:35;9.32;;;8.63;;
4903;SDS011;2467;48.142;11.616;2022-08-19T02:38:25;8.45;;;7.75;;
4903;SDS011;2467;48.142;11.616;2022-08-19T02:38:57;9.35;;;8.55;;
4903;SDS011;2467;48.142;11.616;2022-08-19T02:39:30;9.80;;;9.10;;
4903;SDS011;2467;48.142;11.616;2022-08-19T02:40:02;9.60;;;8.70;;
4903;SDS011;2467;48.142;11.616;2022-08-19T02:40:47;8.65;;;7.95;;
4903;SDS011;2467;48.142;11.616;2022-08-19T02:41:23;8.52;;;7.88;;
4903;SDS011;2467;48.142;11.616;2022-08-19T02:41:57;7.78;;;7.07;;
4903;SDS011;2467;48.142;11.616;2022-08-19T02:42:30;8.85;;;8.15;;
4903;SDS011;2467;48.142;11.616;2022-08-19T02:43:03;9.48;;;8.70;;
4903;SDS011;2467;48.142;11.616;2022-08-19T02:43:38;8.43;;;7.72;;
4903;SDS011;2467;48.142;11.616;2022-08-19T02:44:31;8.68;;;7.97;;
4903;SDS011;2467;48.142;11.616;2022-08-19T02:45:03;9.43;;;7.65;;
4903;SDS011;2467;48.142;11.616;2022-08-19T02:45:37;8.82;;;8.13;;
4903;SDS011;2467;48.142;11.616;2022-08-19T02:46:13;9.90;;;9.10;;
4903;SDS011;2467;48.142;11.616;2022-08-19T02:46:48;8.18;;;7.35;;
4903;SDS011;2467;48.142;11.616;2022-08-19T02:47:22;8.30;;;7.65;;
4903;SDS011;2467;48.142;11.616;2022-08-19T02:47:55;9.10;;;8.20;;
4903;SDS011;2467;48.142;11.616;2022-08-19T02:48:27;8.95;;;8.20;;
4903;SDS011;2467;48.142;11.616;2022-08-19T02:49:01;8.88;;;8.18;;
4903;SDS011;2467;48.142;11.616;2022-08-19T02:49:36;8.68;;;7.88;;
4903;SDS011;2467;48.142;11.616;2022-08-19T02:50:08;7.45;;;6.85;;
4903;SDS011;2467;48.142;11.616;2022-08-19T02:50:41;8.27;;;7.47;;
4903;SDS011;2467;48.142;11.616;2022-08-19T02:51:25;9.85;;;9.05;;
4903;SDS011;2467;48.142;11.616;2022-08-19T02:51:58;8.38;;;7.68;;
4903;SDS011;2467;48.142;11.616;2022-08-19T02:52:31;9.82;;;8.93;;
4903;SDS011;2467;48.142;11.616;2022-08-19T02:53:04;8.98;;;8.27;;
4903;SDS011;2467;48.142;11.616;2022-08-19T02:53:38;8.70;;;7.90;;
4903;SDS011;2467;48.142;11.616;2022-08-19T02:54:11;9.07;;;8.38;;
4903;SDS011;2467;48.142;11.616;2022-08-19T02:54:45;7.60;;;6.95;;
4903;SDS011;2467;48.142;11.616;2022-08-19T02:55:17;8.18;;;7.40;;
4903;SDS011;2467;48.142;11.616;2022-08-19T02:55:50;8.68;;;8.07;;
4903;SDS011;2467;48.142;11.616;2022-08-19T02:56:23;7.35;;;6.85;;
4903;SDS011;2467;48.142;11.616;2022-08-19T02:56:55;7.90;;;7.30;;
4903;SDS011;2467;48.142;11.616;2022-08-19T02:57:29;7.47;;;6.85;;
4903;SDS011;2467;48.142;11.616;2022-08-19T02:58:02;9.50;;;8.70;;
4903;SDS011;2467;48.142;11.616;2022-08-19T02:58:38;8.77;;;8.07;;
4903;SDS011;2467;48.142;11.616;2022-08-19T02:59:11;8.38;;;7.68;;
4903;SDS011;2467;48.142;11.616;2022-08-19T02:59:43;8.75;;;8.05;;
4903;SDS011;2467;48.142;11.616;2022-08-19T03:00:15;9.20;;;8.48;;
4903;SDS011;2467;48.142;11.616;2022-08-19T03:00:49;8.05;;;7.35;;
4903;SDS011;2467;48.142;11.616;2022-08-19T03:01:24;8.23;;;7.43;;
4903;SDS011;2467;48.142;11.616;2022-08-19T03:01:58;8.57;;;7.97;;
4903;SDS011;2467;48.142;11.616;2022-08-19T03:02:31;8.00;;;7.30;;
4903;SDS011;2467;48.142;11.616;2022-08-19T03:03:03;9.50;;;8.60;;
4903;SDS011;2467;48.142;11.616;2022-08-19T03:03:34;8.40;;;7.72;;
4903;SDS011;2467;48.142;11.616;2022-08-19T03:04:08;8.32;;;7.53;;
4903;SDS011;2467;48.142;11.616;2022-08-19T03:04:42;9.10;;;8.30;;
4903;SDS011;2467;48.142;11.616;2022-08-19T03:05:14;9.00;;;8.27;;
4903;SDS011;2467;48.142;11.616;2022-08-19T03:05:47;9.15;;;8.45;;
4903;SDS011;2467;48.142;11.616;2022-08-19T03:06:27;7.90;;;7.30;;
4903;SDS011;2467;48.142;11.616;2022-08-19T03:07:00;7.95;;;7.25;;
4903;SDS011;2467;48.142;11.616;2022-08-19T03:07:41;8.63;;;7.88;;
4903;SDS011;2467;48.142;11.616;2022-08-19T03:08:13;10.07;;;9.18;;
4903;SDS011;2467;48.142;11.616;2022-08-19T03:08:46;9.80;;;7.85;;
4903;SDS011;2467;48.142;11.616;2022-08-19T03:09:20;9.25;;;8.45;;
4903;SDS011;2467;48.142;11.616;2022-08-19T03:09:53;8.07;;;7.40;;
4903;SDS011;2467;48.142;11.616;2022-08-19T03:10:26;8.65;;;7.95;;
4903;SDS011;2467;48.142;11.616;2022-08-19T03:10:58;8.98;;;8.27;;
4903;SDS011;2467;48.142;11.616;2022-08-19T03:11:30;9.68;;;8.98;;
4903;SDS011;2467;48.142;11.616;2022-08-19T03:12:04;8.02;;;7.43;;
4903;SDS011;2467;48.142;11.616;2022-08-19T03:12:37;9.13;;;8.38;;
4903;SDS011;2467;48.142;11.616;2022-08-19T03:13:10;8.45;;;7.80;;
4903;SDS011;2467;48.142;11.616;2022-08-19T03:13:44;8.88;;;8.18;;
4903;SDS011;2467;48.142;11.616;2022-08-19T03:14:16;8.05;;;7.40;;
4903;SDS011;2467;48.142;11.616;2022-08-19T03:14:49;7.65;;;7.05;;
4903;SDS011;2467;48.142;11.616;2022-08-19T03:15:22;8.35;;;7.65;;
4903;SDS011;2467;48.142;11.616;2022-08-19T03:15:54;8.00;;;7.35;;
4903;SDS011;2467;48.142;11.616;2022-08-19T03:16:26;9.77;;;8.75;;
4903;SDS011;2467;48.142;11.616;2022-08-19T03:17:04;8.38;;;7.78;;
4903;SDS011;2467;48.142;11.616;2022-08-19T03:17:36;8.00;;;7.40;;
4903;SDS011;2467;48.142;11.616;2022-08-19T03:18:08;8.10;;;7.40;;
4903;SDS011;2467;48.142;11.616;2022-08-19T03:18:43;8.60;;;7.90;;
4903;SDS011;2467;48.142;11.616;2022-08-19T03:19:15;8.95;;;8.15;;
4903;SDS011;2467;48.142;11.616;2022-08-19T03:19:48;9.43;;;8.63;;
4903;SDS011;2467;48.142;11.616;2022-08-19T03:20:20;7.80;;;7.20;;
4903;SDS011;2467;48.142;11.616;2022-08-19T03:20:53;9.05;;;8.25;;
4903;SDS011;2467;48.142;11.616;2022-08-19T03:21:26;8.80;;;8.10;;
4903;SDS011;2467;48.142;11.616;2022-08-19T03:22:00;8.25;;;7.65;;
4903;SDS011;2467;48.142;11.616;2022-08-19T03:22:33;8.27;;;7.57;;
4903;SDS011;2467;48.142;11.616;2022-08-19T03:23:05;8.43;;;7.72;;
4903;SDS011;2467;48.142;11.616;2022-08-19T03:23:38;8.98;;;8.23;;
4903;SDS011;2467;48.142;11.616;2022-08-19T03:24:11;8.63;;;7.82;;
4903;SDS011;2467;48.142;11.616;2022-08-19T03:24:44;9.15;;;8.50;;
4903;SDS011;2467;48.142;11.616;2022-08-19T03:25:18;7.80;;;7.13;;
4903;SDS011;2467;48.142;11.616;2022-08-19T03:25:51;8.65;;;7.97;;
4903;SDS011;2467;48.142;11.616;2022-08-19T03:26:34;8.68;;;7.88;;
4903;SDS011;2467;48.142;11.616;2022-08-19T03:27:10;7.93;;;7.20;;
4903;SDS011;2467;48.142;11.616;2022-08-19T03:27:43;7.97;;;7.38;;
4903;SDS011;2467;48.142;11.616;2022-08-19T03:28:15;8.75;;;8.05;;